createdAt,value
2018-08-03T00:00:45.220Z,29.02
2018-08-03T00:01:54.909Z,29
2018-08-03T00:03:03.812Z,29
2018-08-03T00:04:12.957Z,29.09
2018-08-03T00:05:22.405Z,29.05
2018-08-03T00:06:31.834Z,29.02
2018-08-03T00:07:40.989Z,28.98
2018-08-03T00:08:50.152Z,29.08
2018-08-03T00:09:59.609Z,29
2018-08-03T00:11:08.754Z,29.09
2018-08-03T00:12:18.424Z,28.96
2018-08-03T00:13:28.094Z,29.02
2018-08-03T00:14:37.519Z,28.96
2018-08-03T00:15:46.674Z,29
2018-08-03T00:16:56.073Z,29
2018-08-03T00:18:05.251Z,28.92
2018-08-03T00:19:14.407Z,28.93
2018-08-03T00:20:23.818Z,28.95
2018-08-03T00:21:32.965Z,29.02
2018-08-03T00:22:41.861Z,28.98
2018-08-03T00:23:51.535Z,29
2018-08-03T00:25:00.935Z,28.96
2018-08-03T00:26:10.109Z,28.93
2018-08-03T00:27:19.284Z,29.04
2018-08-03T00:28:28.428Z,28.95
2018-08-03T00:29:38.136Z,28.98
2018-08-03T00:30:47.535Z,29
2018-08-03T00:31:56.965Z,28.96
2018-08-03T00:33:06.113Z,28.92
2018-08-03T00:34:15.860Z,29
2018-08-03T00:35:25.302Z,28.93
2018-08-03T00:36:34.703Z,29
2018-08-03T00:37:43.878Z,28.92
2018-08-03T00:38:53.295Z,28.92
2018-08-03T00:40:02.961Z,28.92
2018-08-03T00:41:12.390Z,28.92
2018-08-03T00:42:22.127Z,28.92
2018-08-03T00:43:31.530Z,28.89
2018-08-03T00:44:40.255Z,28.93
2018-08-03T00:45:49.408Z,28.92
2018-08-03T00:46:58.569Z,28.96
2018-08-03T00:48:07.466Z,28.9
2018-08-03T00:49:16.485Z,28.9
2018-08-03T00:50:26.169Z,28.9
2018-08-03T00:51:35.316Z,28.93
2018-08-03T00:52:44.735Z,28.9
2018-08-03T00:53:53.908Z,28.85
2018-08-03T00:55:03.061Z,28.9
2018-08-03T00:56:11.969Z,28.92
2018-08-03T00:57:21.382Z,28.9
2018-08-03T00:58:30.546Z,28.89
2018-08-03T00:59:39.798Z,28.89
2018-08-03T01:00:49.756Z,28.93
2018-08-03T01:01:58.647Z,28.83
2018-08-03T01:03:07.825Z,28.89
2018-08-03T01:04:17.247Z,28.96
2018-08-03T01:05:26.400Z,28.83
2018-08-03T01:06:35.047Z,28.85
2018-08-03T01:07:44.464Z,28.95
2018-08-03T01:08:53.870Z,28.9
2018-08-03T01:10:02.524Z,28.88
2018-08-03T01:11:12.228Z,28.9
2018-08-03T01:12:22.155Z,28.85
2018-08-03T01:13:31.578Z,28.8
2018-08-03T01:14:40.721Z,28.9
2018-08-03T01:15:50.147Z,28.78
2018-08-03T01:16:59.555Z,28.8
2018-08-03T01:18:08.724Z,28.81
2018-08-03T01:19:17.893Z,28.81
2018-08-03T01:20:27.579Z,28.73
2018-08-03T01:21:37.517Z,28.76
2018-08-03T01:22:46.670Z,28.77
2018-08-03T01:23:55.567Z,28.78
2018-08-03T01:25:04.731Z,28.77
2018-08-03T01:26:14.156Z,28.78
2018-08-03T01:27:23.314Z,28.76
2018-08-03T01:28:32.508Z,28.8
2018-08-03T01:29:42.426Z,28.77
2018-08-03T01:30:51.355Z,28.76
2018-08-03T01:32:01.299Z,28.78
2018-08-03T01:33:11.052Z,28.73
2018-08-03T01:34:19.757Z,28.8
2018-08-03T01:35:29.188Z,28.74
2018-08-03T01:36:38.089Z,28.78
2018-08-03T01:37:48.139Z,28.77
2018-08-03T01:38:57.987Z,28.73
2018-08-03T01:40:07.654Z,28.73
2018-08-03T01:41:16.820Z,28.74
2018-08-03T01:42:25.967Z,28.83
2018-08-03T01:43:35.370Z,28.73
2018-08-03T01:44:44.264Z,28.74
2018-08-03T01:45:53.930Z,28.76
2018-08-03T01:47:02.835Z,28.73
2018-08-03T01:48:12.003Z,28.73
2018-08-03T01:49:20.894Z,28.7
2018-08-03T01:50:30.051Z,28.67
2018-08-03T01:51:39.730Z,28.66
2018-08-03T01:52:48.883Z,28.66
2018-08-03T01:53:58.052Z,28.7
2018-08-03T01:55:07.735Z,28.7
2018-08-03T01:56:16.404Z,28.67
2018-08-03T01:57:26.087Z,28.68
2018-08-03T01:58:35.490Z,28.66
2018-08-03T01:59:45.402Z,28.67
2018-08-03T02:00:55.075Z,28.58
2018-08-03T02:02:04.530Z,28.68
2018-08-03T02:03:14.123Z,28.55
2018-08-03T02:04:23.987Z,28.59
2018-08-03T02:05:33.391Z,28.58
2018-08-03T02:06:42.796Z,28.59
2018-08-03T02:07:52.215Z,28.56
2018-08-03T02:09:01.369Z,28.56
2018-08-03T02:10:10.798Z,28.59
2018-08-03T02:11:20.474Z,28.59
2018-08-03T02:12:30.128Z,28.61
2018-08-03T02:13:39.269Z,28.59
2018-08-03T02:14:48.448Z,28.51
2018-08-03T02:15:58.140Z,28.52
2018-08-03T02:17:07.035Z,28.49
2018-08-03T02:18:16.464Z,28.48
2018-08-03T02:19:25.097Z,28.52
2018-08-03T02:20:34.255Z,28.58
2018-08-03T02:21:43.400Z,28.48
2018-08-03T02:22:52.284Z,28.55
2018-08-03T02:24:01.682Z,28.51
2018-08-03T02:25:11.349Z,28.41
2018-08-03T02:26:21.030Z,28.48
2018-08-03T02:27:30.968Z,28.55
2018-08-03T02:28:40.370Z,28.54
2018-08-03T02:29:50.031Z,28.54
2018-08-03T02:30:59.464Z,28.59
2018-08-03T02:32:08.635Z,28.54
2018-08-03T02:33:18.064Z,28.59
2018-08-03T02:34:27.493Z,28.48
2018-08-03T02:35:36.408Z,28.54
2018-08-03T02:36:45.907Z,28.55
2018-08-03T02:37:54.806Z,28.61
2018-08-03T02:39:03.694Z,28.62
2018-08-03T02:40:13.107Z,28.62
2018-08-03T02:41:23.064Z,28.64
2018-08-03T02:42:32.740Z,28.61
2018-08-03T02:43:42.412Z,28.64
2018-08-03T02:44:51.611Z,28.58
2018-08-03T02:46:01.282Z,28.58
2018-08-03T02:47:10.947Z,28.61
2018-08-03T02:48:20.116Z,28.61
2018-08-03T02:49:30.054Z,28.59
2018-08-03T02:50:39.742Z,28.55
2018-08-03T02:51:48.894Z,28.54
2018-08-03T02:52:58.566Z,28.56
2018-08-03T02:54:07.982Z,28.59
2018-08-03T02:55:17.412Z,28.59
2018-08-03T02:56:26.326Z,28.58
2018-08-03T02:57:35.225Z,28.58
2018-08-03T02:58:44.383Z,28.59
2018-08-03T02:59:53.535Z,28.56
2018-08-03T03:01:02.431Z,28.59
2018-08-03T03:02:11.605Z,28.58
2018-08-03T03:03:21.528Z,28.54
2018-08-03T03:04:31.209Z,28.51
2018-08-03T03:05:40.623Z,28.56
2018-08-03T03:06:50.289Z,28.55
2018-08-03T03:07:59.722Z,28.61
2018-08-03T03:09:09.408Z,28.55
2018-08-03T03:10:18.819Z,28.51
2018-08-03T03:11:28.236Z,28.58
2018-08-03T03:12:37.684Z,28.59
2018-08-03T03:13:47.103Z,28.55
2018-08-03T03:14:56.000Z,28.55
2018-08-03T03:16:05.406Z,28.55
2018-08-03T03:17:14.833Z,28.55
2018-08-03T03:18:24.256Z,28.54
2018-08-03T03:19:33.565Z,28.55
2018-08-03T03:20:43.356Z,28.58
2018-08-03T03:21:52.014Z,28.62
2018-08-03T03:23:01.422Z,28.55
2018-08-03T03:24:10.583Z,28.58
2018-08-03T03:25:20.022Z,28.58
2018-08-03T03:26:29.174Z,28.61
2018-08-03T03:27:38.081Z,28.59
2018-08-03T03:28:47.252Z,28.61
2018-08-03T03:29:56.167Z,28.56
2018-08-03T03:31:05.850Z,28.58
2018-08-03T03:32:15.307Z,28.55
2018-08-03T03:33:25.108Z,28.56
2018-08-03T03:34:34.860Z,28.52
2018-08-03T03:35:43.764Z,28.48
2018-08-03T03:36:53.178Z,28.51
2018-08-03T03:38:02.856Z,28.46
2018-08-03T03:39:12.536Z,28.39
2018-08-03T03:40:21.966Z,28.49
2018-08-03T03:41:30.612Z,28.51
2018-08-03T03:42:40.024Z,28.49
2018-08-03T03:43:49.194Z,28.46
2018-08-03T03:44:58.091Z,28.56
2018-08-03T03:46:07.006Z,28.4
2018-08-03T03:47:15.907Z,28.51
2018-08-03T03:48:25.348Z,28.44
2018-08-03T03:49:34.248Z,28.58
2018-08-03T03:50:43.666Z,28.51
2018-08-03T03:51:53.070Z,28.49
2018-08-03T03:53:02.489Z,28.49
2018-08-03T03:54:11.714Z,28.48
2018-08-03T03:55:20.865Z,28.48
2018-08-03T03:56:30.017Z,28.54
2018-08-03T03:57:39.438Z,28.46
2018-08-03T03:58:48.843Z,28.56
2018-08-03T03:59:58.261Z,28.51
2018-08-03T04:01:07.927Z,28.48
2018-08-03T04:02:17.799Z,28.52
2018-08-03T04:03:26.708Z,28.44
2018-08-03T04:04:35.367Z,28.46
2018-08-03T04:05:44.786Z,28.48
2018-08-03T04:06:54.449Z,28.48
2018-08-03T04:08:03.885Z,28.48
2018-08-03T04:09:13.315Z,28.52
2018-08-03T04:10:22.999Z,28.49
2018-08-03T04:11:32.417Z,28.49
2018-08-03T04:12:41.823Z,28.51
2018-08-03T04:13:50.973Z,28.48
2018-08-03T04:15:00.377Z,28.52
2018-08-03T04:16:09.521Z,28.52
2018-08-03T04:17:18.701Z,28.52
2018-08-03T04:18:28.376Z,28.44
2018-08-03T04:19:37.821Z,28.46
2018-08-03T04:20:46.975Z,28.43
2018-08-03T04:21:55.871Z,28.44
2018-08-03T04:23:05.035Z,28.52
2018-08-03T04:24:13.685Z,28.36
2018-08-03T04:25:22.839Z,28.33
2018-08-03T04:26:32.634Z,28.39
2018-08-03T04:27:41.548Z,28.41
2018-08-03T04:28:50.987Z,28.48
2018-08-03T04:30:00.452Z,28.43
2018-08-03T04:31:10.137Z,28.43
2018-08-03T04:32:19.055Z,28.41
2018-08-03T04:33:28.197Z,28.51
2018-08-03T04:34:37.111Z,28.34
2018-08-03T04:35:46.794Z,28.4
2018-08-03T04:36:55.698Z,28.31
2018-08-03T04:38:05.366Z,28.36
2018-08-03T04:39:14.513Z,28.39
2018-08-03T04:40:24.199Z,28.43
2018-08-03T04:41:33.892Z,28.44
2018-08-03T04:42:43.430Z,28.43
2018-08-03T04:43:52.840Z,28.43
2018-08-03T04:45:02.277Z,28.4
2018-08-03T04:46:11.696Z,28.36
2018-08-03T04:47:20.867Z,28.41
2018-08-03T04:48:30.347Z,28.36
2018-08-03T04:49:40.102Z,28.4
2018-08-03T04:50:49.001Z,28.34
2018-08-03T04:51:58.142Z,28.36
2018-08-03T04:53:07.032Z,28.4
2018-08-03T04:54:16.434Z,28.31
2018-08-03T04:55:25.862Z,28.36
2018-08-03T04:56:35.008Z,28.4
2018-08-03T04:57:44.174Z,28.37
2018-08-03T04:58:53.593Z,28.34
2018-08-03T05:00:03.011Z,28.34
2018-08-03T05:01:12.677Z,28.39
2018-08-03T05:02:21.600Z,28.36
2018-08-03T05:03:30.756Z,28.41
2018-08-03T05:04:39.987Z,28.43
2018-08-03T05:05:49.481Z,28.39
2018-08-03T05:06:58.889Z,28.34
2018-08-03T05:08:07.810Z,28.34
2018-08-03T05:09:16.946Z,28.31
2018-08-03T05:10:26.091Z,28.46
2018-08-03T05:11:35.238Z,28.46
2018-08-03T05:12:44.897Z,28.36
2018-08-03T05:13:54.073Z,28.49
2018-08-03T05:15:03.232Z,28.51
2018-08-03T05:16:12.396Z,28.46
2018-08-03T05:17:21.555Z,28.43
2018-08-03T05:18:31.009Z,28.46
2018-08-03T05:19:40.417Z,28.43
2018-08-03T05:20:49.587Z,28.48
2018-08-03T05:21:58.493Z,28.44
2018-08-03T05:23:08.160Z,28.48
2018-08-03T05:24:17.105Z,28.44
2018-08-03T05:25:25.989Z,28.61
2018-08-03T05:26:35.142Z,28.49
2018-08-03T05:27:44.319Z,28.48
2018-08-03T05:28:53.478Z,28.61
2018-08-03T05:30:02.634Z,28.56
2018-08-03T05:31:11.567Z,28.55
2018-08-03T05:32:20.978Z,28.58
2018-08-03T05:33:30.126Z,28.58
2018-08-03T05:34:39.791Z,28.58
2018-08-03T05:35:49.486Z,28.56
2018-08-03T05:36:58.681Z,28.58
2018-08-03T05:38:07.568Z,28.54
2018-08-03T05:39:16.728Z,28.58
2018-08-03T05:40:25.890Z,28.64
2018-08-03T05:41:35.569Z,28.61
2018-08-03T05:42:44.728Z,28.61
2018-08-03T05:43:53.891Z,28.58
2018-08-03T05:45:02.776Z,28.59
2018-08-03T05:46:11.926Z,28.64
2018-08-03T05:47:21.341Z,28.59
2018-08-03T05:48:30.752Z,28.66
2018-08-03T05:49:39.908Z,28.64
2018-08-03T05:50:49.128Z,28.61
2018-08-03T05:51:58.321Z,28.64
2018-08-03T05:53:07.734Z,28.62
2018-08-03T05:54:17.387Z,28.68
2018-08-03T05:55:26.302Z,28.68
2018-08-03T05:56:35.188Z,28.64
2018-08-03T05:57:44.640Z,28.67
2018-08-03T05:58:54.423Z,28.73
2018-08-03T06:00:03.833Z,28.7
2018-08-03T06:01:12.981Z,28.67
2018-08-03T06:02:22.645Z,28.67
2018-08-03T06:03:32.100Z,28.73
2018-08-03T06:04:41.670Z,28.71
2018-08-03T06:05:50.816Z,28.74
2018-08-03T06:07:00.227Z,28.68
2018-08-03T06:08:09.768Z,28.68
2018-08-03T06:09:19.298Z,28.74
2018-08-03T06:10:28.464Z,28.76
2018-08-03T06:11:37.620Z,28.71
2018-08-03T06:12:46.530Z,28.7
2018-08-03T06:13:55.688Z,28.71
2018-08-03T06:15:05.106Z,28.68
2018-08-03T06:16:14.581Z,28.7
2018-08-03T06:17:23.983Z,28.71
2018-08-03T06:18:32.907Z,28.74
2018-08-03T06:19:42.321Z,28.73
2018-08-03T06:20:51.605Z,28.68
2018-08-03T06:22:01.027Z,28.73
2018-08-03T06:23:10.176Z,28.7
2018-08-03T06:24:19.337Z,28.67
2018-08-03T06:25:28.518Z,28.8
2018-08-03T06:26:37.679Z,28.7
2018-08-03T06:27:47.095Z,28.73
2018-08-03T06:28:56.509Z,28.74
2018-08-03T06:30:05.959Z,28.74
2018-08-03T06:31:15.122Z,28.8
2018-08-03T06:32:24.273Z,28.74
2018-08-03T06:33:33.946Z,28.78
2018-08-03T06:34:43.095Z,28.88
2018-08-03T06:35:52.559Z,28.77
2018-08-03T06:37:01.998Z,28.78
2018-08-03T06:38:12.055Z,28.8
2018-08-03T06:39:21.445Z,28.76
2018-08-03T06:40:30.654Z,28.76
2018-08-03T06:41:39.561Z,28.76
2018-08-03T06:42:48.730Z,28.85
2018-08-03T06:43:58.153Z,28.77
2018-08-03T06:45:07.302Z,28.78
2018-08-03T06:46:16.728Z,28.81
2018-08-03T06:47:25.887Z,28.8
2018-08-03T06:48:35.177Z,28.76
2018-08-03T06:49:44.583Z,28.85
2018-08-03T06:50:53.987Z,28.8
2018-08-03T06:52:02.874Z,28.77
2018-08-03T06:53:12.045Z,28.81
2018-08-03T06:54:20.964Z,28.81
2018-08-03T06:55:30.365Z,28.8
2018-08-03T06:56:39.840Z,28.78
2018-08-03T06:57:49.515Z,28.76
2018-08-03T06:58:58.976Z,28.8
2018-08-03T07:00:08.143Z,28.85
2018-08-03T07:01:17.300Z,28.89
2018-08-03T07:02:26.520Z,28.78
2018-08-03T07:03:35.671Z,28.81
2018-08-03T07:04:45.347Z,28.81
2018-08-03T07:05:55.013Z,28.83
2018-08-03T07:07:04.156Z,28.81
2018-08-03T07:08:13.312Z,28.89
2018-08-03T07:09:22.724Z,28.86
2018-08-03T07:10:31.940Z,28.81
2018-08-03T07:11:41.630Z,28.83
2018-08-03T07:12:50.793Z,28.86
2018-08-03T07:14:00.198Z,28.93
2018-08-03T07:15:09.858Z,28.9
2018-08-03T07:16:19.547Z,28.88
2018-08-03T07:17:28.726Z,28.77
2018-08-03T07:18:38.175Z,28.8
2018-08-03T07:19:47.348Z,28.89
2018-08-03T07:20:56.566Z,28.95
2018-08-03T07:22:05.723Z,28.85
2018-08-03T07:23:15.133Z,28.88
2018-08-03T07:24:24.294Z,28.92
2018-08-03T07:25:33.447Z,28.93
2018-08-03T07:26:42.596Z,28.83
2018-08-03T07:27:52.261Z,28.89
2018-08-03T07:29:01.685Z,28.86
2018-08-03T07:30:10.835Z,28.86
2018-08-03T07:31:20.254Z,28.95
2018-08-03T07:32:29.153Z,28.88
2018-08-03T07:33:37.797Z,28.86
2018-08-03T07:34:47.465Z,28.92
2018-08-03T07:35:57.144Z,28.85
2018-08-03T07:37:06.470Z,28.89
2018-08-03T07:38:15.868Z,28.86
2018-08-03T07:39:25.017Z,28.9
2018-08-03T07:40:34.171Z,29
2018-08-03T07:41:44.092Z,28.9
2018-08-03T07:42:53.902Z,28.89
2018-08-03T07:44:03.480Z,28.9
2018-08-03T07:45:13.142Z,28.88
2018-08-03T07:46:22.550Z,28.89
2018-08-03T07:47:31.978Z,28.96
2018-08-03T07:48:41.144Z,28.92
2018-08-03T07:49:50.553Z,28.89
2018-08-03T07:51:00.225Z,28.95
2018-08-03T07:52:09.666Z,28.89
2018-08-03T07:53:19.081Z,28.9
2018-08-03T07:54:28.000Z,28.92
2018-08-03T07:55:37.181Z,29
2018-08-03T07:56:46.590Z,28.88
2018-08-03T07:57:55.754Z,28.9
2018-08-03T07:59:05.428Z,28.95
2018-08-03T08:00:15.357Z,28.93
2018-08-03T08:01:25.022Z,28.95
2018-08-03T08:02:34.691Z,28.92
2018-08-03T08:03:44.152Z,28.96
2018-08-03T08:04:53.847Z,28.98
2018-08-03T08:06:02.755Z,28.95
2018-08-03T08:07:12.211Z,28.95
2018-08-03T08:08:21.966Z,28.92
2018-08-03T08:09:31.776Z,28.98
2018-08-03T08:10:41.263Z,29.02
2018-08-03T08:11:50.436Z,28.9
2018-08-03T08:12:59.381Z,29
2018-08-03T08:14:08.318Z,29
2018-08-03T08:15:18.531Z,28.92
2018-08-03T08:16:27.593Z,28.95
2018-08-03T08:17:36.744Z,29.02
2018-08-03T08:18:45.658Z,28.92
2018-08-03T08:19:55.069Z,28.95
2018-08-03T08:21:04.224Z,28.96
2018-08-03T08:22:13.383Z,28.89
2018-08-03T08:23:22.275Z,28.92
2018-08-03T08:24:31.439Z,28.96
2018-08-03T08:25:40.338Z,29.02
2018-08-03T08:26:49.222Z,28.96
2018-08-03T08:27:58.659Z,29.02
2018-08-03T08:29:08.080Z,29.02
2018-08-03T08:30:18.016Z,28.95
2018-08-03T08:31:27.457Z,28.98
2018-08-03T08:32:36.990Z,28.95
2018-08-03T08:33:45.898Z,29.02
2018-08-03T08:34:55.658Z,28.92
2018-08-03T08:36:05.083Z,28.92
2018-08-03T08:37:14.313Z,29.02
2018-08-03T08:38:23.476Z,28.98
2018-08-03T08:39:33.161Z,28.96
2018-08-03T08:40:42.315Z,28.98
2018-08-03T08:41:51.491Z,28.95
2018-08-03T08:43:00.144Z,29
2018-08-03T08:44:09.572Z,28.95
2018-08-03T08:45:19.012Z,29.02
2018-08-03T08:46:28.441Z,28.98
2018-08-03T08:47:37.598Z,29.02
2018-08-03T08:48:46.499Z,29
2018-08-03T08:49:55.654Z,29.04
2018-08-03T08:51:05.097Z,28.98
2018-08-03T08:52:14.569Z,29
2018-08-03T08:53:24.433Z,29.06
2018-08-03T08:54:33.373Z,29
2018-08-03T08:55:42.826Z,29.02
2018-08-03T08:56:52.518Z,28.96
2018-08-03T08:58:01.935Z,28.96
2018-08-03T08:59:11.091Z,28.98
2018-08-03T09:00:20.510Z,29
2018-08-03T09:01:29.943Z,29.05
2018-08-03T09:02:39.605Z,28.95
2018-08-03T09:03:49.321Z,29
2018-08-03T09:04:58.488Z,28.96
2018-08-03T09:06:08.217Z,29.02
2018-08-03T09:07:17.128Z,29.11
2018-08-03T09:08:26.583Z,29
2018-08-03T09:09:35.492Z,28.98
2018-08-03T09:10:44.934Z,29.11
2018-08-03T09:11:54.091Z,29
2018-08-03T09:13:03.042Z,28.98
2018-08-03T09:14:12.781Z,28.95
2018-08-03T09:15:21.693Z,29.02
2018-08-03T09:16:30.867Z,29
2018-08-03T09:17:40.075Z,29.11
2018-08-03T09:18:50.148Z,28.98
2018-08-03T09:19:59.227Z,28.9
2018-08-03T09:21:08.654Z,28.98
2018-08-03T09:22:18.490Z,29.14
2018-08-03T09:23:27.911Z,29.05
2018-08-03T09:24:37.762Z,29
2018-08-03T09:25:47.378Z,29.06
2018-08-03T09:26:56.805Z,29
2018-08-03T09:28:05.984Z,29.05
2018-08-03T09:29:15.663Z,29
2018-08-03T09:30:25.080Z,28.96
2018-08-03T09:31:35.015Z,29.02
2018-08-03T09:32:44.957Z,28.93
2018-08-03T09:33:53.605Z,29.02
2018-08-03T09:35:02.754Z,29
2018-08-03T09:36:11.927Z,29.04
2018-08-03T09:37:21.356Z,29.04
2018-08-03T09:38:30.251Z,28.93
2018-08-03T09:39:39.671Z,29.04
2018-08-03T09:40:49.078Z,28.98
2018-08-03T09:41:58.742Z,29.02
2018-08-03T09:43:08.331Z,28.98
2018-08-03T09:44:17.484Z,29.06
2018-08-03T09:45:26.900Z,28.98
2018-08-03T09:46:36.568Z,29
2018-08-03T09:47:45.973Z,28.95
2018-08-03T09:48:54.856Z,29.09
2018-08-03T09:50:04.549Z,28.96
2018-08-03T09:51:13.963Z,28.93
2018-08-03T09:52:23.391Z,29.04
2018-08-03T09:53:33.057Z,29.04
2018-08-03T09:54:42.249Z,29.04
2018-08-03T09:55:51.707Z,29.06
2018-08-03T09:57:01.116Z,29.02
2018-08-03T09:58:10.544Z,29.18
2018-08-03T09:59:20.259Z,29.06
2018-08-03T10:00:29.399Z,29.04
2018-08-03T10:01:38.346Z,29.08
2018-08-03T10:02:48.307Z,29.02
2018-08-03T10:03:57.510Z,29.02
2018-08-03T10:05:07.436Z,29.08
2018-08-03T10:06:16.881Z,29.06
2018-08-03T10:07:27.019Z,29.04
2018-08-03T10:08:36.739Z,29.05
2018-08-03T10:09:46.433Z,29.08
2018-08-03T10:10:55.844Z,29.09
2018-08-03T10:12:05.251Z,29.08
2018-08-03T10:13:14.935Z,29.09
2018-08-03T10:14:23.838Z,29.12
2018-08-03T10:15:33.317Z,29.08
2018-08-03T10:16:42.812Z,29.08
2018-08-03T10:17:51.440Z,29.09
2018-08-03T10:19:00.844Z,29.08
2018-08-03T10:20:10.794Z,29.09
2018-08-03T10:21:19.959Z,29.11
2018-08-03T10:22:29.256Z,29.06
2018-08-03T10:23:38.185Z,29.06
2018-08-03T10:24:47.590Z,29.14
2018-08-03T10:25:56.477Z,29.09
2018-08-03T10:27:05.891Z,29.09
2018-08-03T10:28:15.318Z,29.12
2018-08-03T10:29:24.741Z,29.08
2018-08-03T10:30:34.155Z,29.08
2018-08-03T10:31:43.602Z,29.15
2018-08-03T10:32:53.035Z,29
2018-08-03T10:34:02.719Z,29.08
2018-08-03T10:35:12.199Z,29.04
2018-08-03T10:36:21.606Z,29.12
2018-08-03T10:37:30.521Z,29.14
2018-08-03T10:38:39.686Z,29.12
2018-08-03T10:39:49.095Z,29.08
2018-08-03T10:40:58.000Z,29.12
2018-08-03T10:42:07.206Z,29.06
2018-08-03T10:43:16.604Z,29.06
2018-08-03T10:44:26.285Z,29.06
2018-08-03T10:45:35.700Z,29.12
2018-08-03T10:46:44.600Z,29
2018-08-03T10:47:54.278Z,29.15
2018-08-03T10:49:03.459Z,29.06
2018-08-03T10:50:12.651Z,29.09
2018-08-03T10:51:21.934Z,29.05
2018-08-03T10:52:31.762Z,29.14
2018-08-03T10:53:40.659Z,29.04
2018-08-03T10:54:50.064Z,29.12
2018-08-03T10:55:59.264Z,29.06
2018-08-03T10:57:08.689Z,29.15
2018-08-03T10:58:18.226Z,29.06
2018-08-03T10:59:27.755Z,29.08
2018-08-03T11:00:36.919Z,29.14
2018-08-03T11:01:47.171Z,29.16
2018-08-03T11:02:56.896Z,29.12
2018-08-03T11:04:06.070Z,29.05
2018-08-03T11:05:15.993Z,29.09
2018-08-03T11:06:25.669Z,29.06
2018-08-03T11:07:34.570Z,29.12
2018-08-03T11:08:44.244Z,29.15
2018-08-03T11:09:53.678Z,29.09
2018-08-03T11:11:02.577Z,29.06
2018-08-03T11:12:11.531Z,29.12
2018-08-03T11:13:20.670Z,29.15
2018-08-03T11:14:30.095Z,29.12
2018-08-03T11:15:39.510Z,29.12
2018-08-03T11:16:49.109Z,29.09
2018-08-03T11:17:58.800Z,29.08
2018-08-03T11:19:07.808Z,29.08
2018-08-03T11:20:16.701Z,29.18
2018-08-03T11:21:26.397Z,29.15
2018-08-03T11:22:35.055Z,29.15
2018-08-03T11:23:44.206Z,29.11
2018-08-03T11:24:53.373Z,29.19
2018-08-03T11:26:02.677Z,29.05
2018-08-03T11:27:12.600Z,29.08
2018-08-03T11:28:21.496Z,29.16
2018-08-03T11:29:30.683Z,29.26
2018-08-03T11:30:40.165Z,29.18
2018-08-03T11:31:49.824Z,29.12
2018-08-03T11:32:59.008Z,29.09
2018-08-03T11:34:08.176Z,29.15
2018-08-03T11:35:18.370Z,29.15
2018-08-03T11:36:27.873Z,29.15
2018-08-03T11:37:37.294Z,29.15
2018-08-03T11:38:46.975Z,29.23
2018-08-03T11:39:56.139Z,29.18
2018-08-03T11:41:05.327Z,29.12
2018-08-03T11:42:14.750Z,29.19
2018-08-03T11:43:23.928Z,29.12
2018-08-03T11:44:33.365Z,29.18
2018-08-03T11:45:42.798Z,29.12
2018-08-03T11:46:51.441Z,29.15
2018-08-03T11:48:00.852Z,29.16
2018-08-03T11:49:09.998Z,29.18
2018-08-03T11:50:19.145Z,29.12
2018-08-03T11:51:28.054Z,29.21
2018-08-03T11:52:36.690Z,29.23
2018-08-03T11:53:46.095Z,29.23
2018-08-03T11:54:55.016Z,29.15
2018-08-03T11:56:03.671Z,29.23
2018-08-03T11:57:13.134Z,29.27
2018-08-03T11:58:22.592Z,29.21
2018-08-03T11:59:31.742Z,29.14
2018-08-03T12:00:41.457Z,29.19
2018-08-03T12:01:51.066Z,29.15
2018-08-03T12:03:00.998Z,29.21
2018-08-03T12:04:09.886Z,29.12
2018-08-03T12:05:19.060Z,29.19
2018-08-03T12:06:27.975Z,29.15
2018-08-03T12:07:37.610Z,29.14
2018-08-03T12:08:46.772Z,29.14
2018-08-03T12:09:55.946Z,29.18
2018-08-03T12:11:05.379Z,29.15
2018-08-03T12:12:14.027Z,29.18
2018-08-03T12:13:23.515Z,29.12
2018-08-03T12:14:33.183Z,29.24
2018-08-03T12:15:42.332Z,29.26
2018-08-03T12:16:50.975Z,29.15
2018-08-03T12:18:00.622Z,29.23
2018-08-03T12:19:10.392Z,29.15
2018-08-03T12:20:19.801Z,29.26
2018-08-03T12:21:29.301Z,29.23
2018-08-03T12:22:38.731Z,29.19
2018-08-03T12:23:48.010Z,29.19
2018-08-03T12:24:58.243Z,29.12
2018-08-03T12:26:07.683Z,29.14
2018-08-03T12:27:17.355Z,29.26
2018-08-03T12:28:26.271Z,29.11
2018-08-03T12:29:35.944Z,29.12
2018-08-03T12:30:45.614Z,29.11
2018-08-03T12:31:54.766Z,29.31
2018-08-03T12:33:04.191Z,29.15
2018-08-03T12:34:13.331Z,29.16
2018-08-03T12:35:22.751Z,29.3
2018-08-03T12:36:31.908Z,29.12
2018-08-03T12:37:41.319Z,29.27
2018-08-03T12:38:50.768Z,29.21
2018-08-03T12:39:59.941Z,29.3
2018-08-03T12:41:09.609Z,29.3
2018-08-03T12:42:18.761Z,29.27
2018-08-03T12:43:28.500Z,29.23
2018-08-03T12:44:37.676Z,29.21
2018-08-03T12:45:47.115Z,29.31
2018-08-03T12:46:56.090Z,29.18
2018-08-03T12:48:05.237Z,29.19
2018-08-03T12:49:14.404Z,29.16
2018-08-03T12:50:23.831Z,29.23
2018-08-03T12:51:33.672Z,29.24
2018-08-03T12:52:43.820Z,29.21
2018-08-03T12:53:53.524Z,29.24
2018-08-03T12:55:02.937Z,29.27
2018-08-03T12:56:12.356Z,29.28
2018-08-03T12:57:21.840Z,29.28
2018-08-03T12:58:31.259Z,29.19
2018-08-03T12:59:41.198Z,29.33
2018-08-03T13:00:50.941Z,29.23
2018-08-03T13:02:00.091Z,29.24
2018-08-03T13:03:09.519Z,29.28
2018-08-03T13:04:19.767Z,29.24
2018-08-03T13:05:29.642Z,29.24
2018-08-03T13:06:38.539Z,29.28
2018-08-03T13:07:49.049Z,29.23
2018-08-03T13:08:59.460Z,29.21
2018-08-03T13:10:08.616Z,29.26
2018-08-03T13:11:17.768Z,29.24
2018-08-03T13:12:27.440Z,29.26
2018-08-03T13:13:36.603Z,29.24
2018-08-03T13:14:46.059Z,29.33
2018-08-03T13:15:55.984Z,29.23
2018-08-03T13:17:05.146Z,29.27
2018-08-03T13:18:15.085Z,29.33
2018-08-03T13:19:24.265Z,29.27
2018-08-03T13:20:34.199Z,29.27
2018-08-03T13:21:43.652Z,29.33
2018-08-03T13:22:52.547Z,29.3
2018-08-03T13:24:01.732Z,29.3
2018-08-03T13:25:11.423Z,29.31
2018-08-03T13:26:20.332Z,29.33
2018-08-03T13:27:30.010Z,29.36
2018-08-03T13:28:39.504Z,29.27
2018-08-03T13:29:48.434Z,29.34
2018-08-03T13:30:57.331Z,29.31
2018-08-03T13:32:06.480Z,29.33
2018-08-03T13:33:16.133Z,29.36
2018-08-03T13:34:25.641Z,29.34
2018-08-03T13:35:34.555Z,29.43
2018-08-03T13:36:44.215Z,29.37
2018-08-03T13:37:53.377Z,29.41
2018-08-03T13:39:02.927Z,29.34
2018-08-03T13:40:12.714Z,29.42
2018-08-03T13:41:21.875Z,29.39
2018-08-03T13:42:31.301Z,29.43
2018-08-03T13:43:40.451Z,29.43
2018-08-03T13:44:50.379Z,29.37
2018-08-03T13:45:59.794Z,29.41
2018-08-03T13:47:08.948Z,29.39
2018-08-03T13:48:18.655Z,29.45
2018-08-03T13:49:28.066Z,29.39
2018-08-03T13:50:37.478Z,29.42
2018-08-03T13:51:46.892Z,29.42
2018-08-03T13:52:56.037Z,29.46
2018-08-03T13:54:04.707Z,29.45
2018-08-03T13:55:14.382Z,29.39
2018-08-03T13:56:23.708Z,29.48
2018-08-03T13:57:33.803Z,29.45
2018-08-03T13:58:43.550Z,29.42
2018-08-03T13:59:53.223Z,29.46
2018-08-03T14:01:02.911Z,29.46
2018-08-03T14:02:11.802Z,29.43
2018-08-03T14:03:20.974Z,29.49
2018-08-03T14:04:29.909Z,29.41
2018-08-03T14:05:39.316Z,29.43
2018-08-03T14:06:48.974Z,29.45
2018-08-03T14:07:58.905Z,29.46
2018-08-03T14:09:08.066Z,29.51
2018-08-03T14:10:17.768Z,29.42
2018-08-03T14:11:27.188Z,29.53
2018-08-03T14:12:36.627Z,29.55
2018-08-03T14:13:46.302Z,29.48
2018-08-03T14:14:55.965Z,29.53
2018-08-03T14:16:05.372Z,29.58
2018-08-03T14:17:14.821Z,29.53
2018-08-03T14:18:24.226Z,29.6
2018-08-03T14:19:33.127Z,29.53
2018-08-03T14:20:42.289Z,29.57
2018-08-03T14:21:51.705Z,29.52
2018-08-03T14:23:00.635Z,29.6
2018-08-03T14:24:10.310Z,29.63
2018-08-03T14:25:19.512Z,29.61
2018-08-03T14:26:29.229Z,29.58
2018-08-03T14:27:38.387Z,29.6
2018-08-03T14:28:47.538Z,29.57
2018-08-03T14:29:56.966Z,29.53
2018-08-03T14:31:06.383Z,29.63
2018-08-03T14:32:15.552Z,29.55
2018-08-03T14:33:24.710Z,29.52
2018-08-03T14:34:34.112Z,29.6
2018-08-03T14:35:44.003Z,29.61
2018-08-03T14:36:53.697Z,29.55
2018-08-03T14:38:03.218Z,29.63
2018-08-03T14:39:12.410Z,29.65
2018-08-03T14:40:21.817Z,29.68
2018-08-03T14:41:31.266Z,29.6
2018-08-03T14:42:40.435Z,29.63
2018-08-03T14:43:49.851Z,29.6
2018-08-03T14:44:59.282Z,29.6
2018-08-03T14:46:08.695Z,29.67
2018-08-03T14:47:18.122Z,29.64
2018-08-03T14:48:27.014Z,29.61
2018-08-03T14:49:36.672Z,29.55
2018-08-03T14:50:45.562Z,29.67
2018-08-03T14:51:54.991Z,29.64
2018-08-03T14:53:03.881Z,29.57
2018-08-03T14:54:13.056Z,29.64
2018-08-03T14:55:21.964Z,29.65
2018-08-03T14:56:31.279Z,29.58
2018-08-03T14:57:40.747Z,29.58
2018-08-03T14:58:49.890Z,29.6